sensor_id;sensor_type;location;lat;lon;timestamp;pressure;altitude;pressure_sealevel;temperature;humidity
56456;BME280;42354;53.218;6.564;2023-05-21T00:01:31;46977.03;;;-142.92;82.63
56456;BME280;42354;53.218;6.564;2023-05-21T00:03:56;46974.97;;;-142.92;83.06
56456;BME280;42354;53.218;6.564;2023-05-21T00:06:23;46962.66;;;-142.92;83.02
56456;BME280;42354;53.218;6.564;2023-05-21T00:08:49;46981.13;;;-142.92;83.39
56456;BME280;42354;53.218;6.564;2023-05-21T00:11:15;46964.72;;;-142.92;83.37
56456;BME280;42354;53.218;6.564;2023-05-21T00:13:40;46983.19;;;-142.92;83.39
56456;BME280;42354;53.218;6.564;2023-05-21T00:16:06;46954.44;;;-142.92;83.48
56456;BME280;42354;53.218;6.564;2023-05-21T00:18:31;46958.56;;;-142.92;83.43
56456;BME280;42354;53.218;6.564;2023-05-21T00:20:58;46974.97;;;-142.92;83.81
56456;BME280;42354;53.218;6.564;2023-05-21T00:23:24;46966.75;;;-142.92;83.84
56456;BME280;42354;53.218;6.564;2023-05-21T00:25:51;46968.81;;;-142.92;84.00
56456;BME280;42354;53.218;6.564;2023-05-21T00:28:16;46960.59;;;-142.92;84.27
56456;BME280;42354;53.218;6.564;2023-05-21T00:30:42;46979.06;;;-142.92;84.39
56456;BME280;42354;53.218;6.564;2023-05-21T00:33:07;46950.34;;;-142.92;84.44
56456;BME280;42354;53.218;6.564;2023-05-21T00:35:34;46987.28;;;-142.92;84.33
56456;BME280;42354;53.218;6.564;2023-05-21T00:38:00;46985.22;;;-142.92;84.34
56456;BME280;42354;53.218;6.564;2023-05-21T00:40:25;46983.19;;;-142.92;84.47
56456;BME280;42354;53.218;6.564;2023-05-21T00:42:52;46972.91;;;-142.92;84.39
56456;BME280;42354;53.218;6.564;2023-05-21T00:45:21;46974.97;;;-142.92;84.42
56456;BME280;42354;53.218;6.564;2023-05-21T00:47:48;46952.41;;;-142.92;84.62
56456;BME280;42354;53.218;6.564;2023-05-21T00:50:14;46946.25;;;-142.92;84.48
56456;BME280;42354;53.218;6.564;2023-05-21T00:52:40;46962.66;;;-142.92;84.96
56456;BME280;42354;53.218;6.564;2023-05-21T00:55:07;46966.75;;;-142.92;84.73
56456;BME280;42354;53.218;6.564;2023-05-21T00:57:34;46966.75;;;-142.92;84.66
56456;BME280;42354;53.218;6.564;2023-05-21T01:00:01;46962.66;;;-142.92;84.58
56456;BME280;42354;53.218;6.564;2023-05-21T01:02:28;46956.50;;;-142.92;84.85
56456;BME280;42354;53.218;6.564;2023-05-21T01:04:58;46987.28;;;-142.92;84.99
56456;BME280;42354;53.218;6.564;2023-05-21T01:07:24;46968.81;;;-142.92;84.92
56456;BME280;42354;53.218;6.564;2023-05-21T01:09:50;46972.91;;;-142.92;85.03
56456;BME280;42354;53.218;6.564;2023-05-21T01:12:16;46979.06;;;-142.92;85.10
56456;BME280;42354;53.218;6.564;2023-05-21T01:14:42;46974.97;;;-142.92;85.40
56456;BME280;42354;53.218;6.564;2023-05-21T01:17:09;46968.81;;;-142.92;85.26
56456;BME280;42354;53.218;6.564;2023-05-21T01:19:35;46970.88;;;-142.92;85.46
56456;BME280;42354;53.218;6.564;2023-05-21T01:22:05;46983.19;;;-142.92;85.38
56456;BME280;42354;53.218;6.564;2023-05-21T01:24:31;46974.97;;;-142.92;85.93
56456;BME280;42354;53.218;6.564;2023-05-21T01:26:57;46964.72;;;-142.92;85.73
56456;BME280;42354;53.218;6.564;2023-05-21T01:29:23;46983.19;;;-142.92;86.09
56456;BME280;42354;53.218;6.564;2023-05-21T01:32:16;46964.72;;;-142.92;85.75
56456;BME280;42354;53.218;6.564;2023-05-21T01:40:30;46985.22;;;-142.92;86.33
56456;BME280;42354;53.218;6.564;2023-05-21T01:42:58;46962.66;;;-142.92;86.63
56456;BME280;42354;53.218;6.564;2023-05-21T01:45:25;46972.91;;;-142.92;86.74
56456;BME280;42354;53.218;6.564;2023-05-21T01:47:53;46974.97;;;-142.92;86.78
56456;BME280;42354;53.218;6.564;2023-05-21T01:50:22;46981.13;;;-142.92;86.86
56456;BME280;42354;53.218;6.564;2023-05-21T01:52:50;46958.56;;;-142.92;87.03
56456;BME280;42354;53.218;6.564;2023-05-21T01:55:16;46970.88;;;-142.92;87.10
56456;BME280;42354;53.218;6.564;2023-05-21T01:57:41;46966.75;;;-142.92;87.49
56456;BME280;42354;53.218;6.564;2023-05-21T02:00:07;46962.66;;;-142.92;87.41
56456;BME280;42354;53.218;6.564;2023-05-21T02:02:33;46970.88;;;-142.92;87.53
56456;BME280;42354;53.218;6.564;2023-05-21T02:04:59;46964.72;;;-142.92;87.76
56456;BME280;42354;53.218;6.564;2023-05-21T02:07:24;46968.81;;;-142.92;87.93
56456;BME280;42354;53.218;6.564;2023-05-21T02:09:50;46974.97;;;-142.92;87.90
56456;BME280;42354;53.218;6.564;2023-05-21T02:12:15;46966.75;;;-142.92;88.04
56456;BME280;42354;53.218;6.564;2023-05-21T02:14:40;46970.88;;;-142.92;88.04
56456;BME280;42354;53.218;6.564;2023-05-21T02:17:06;46960.59;;;-142.92;88.46
56456;BME280;42354;53.218;6.564;2023-05-21T02:19:32;46970.88;;;-142.92;88.60
56456;BME280;42354;53.218;6.564;2023-05-21T02:21:57;46974.97;;;-142.92;89.05
56456;BME280;42354;53.218;6.564;2023-05-21T02:24:23;46972.91;;;-142.92;89.25
56456;BME280;42354;53.218;6.564;2023-05-21T02:26:48;46968.81;;;-142.92;89.47
56456;BME280;42354;53.218;6.564;2023-05-21T02:29:14;46970.88;;;-142.92;89.56
56456;BME280;42354;53.218;6.564;2023-05-21T02:31:40;46977.03;;;-142.92;89.77
56456;BME280;42354;53.218;6.564;2023-05-21T02:34:05;46958.56;;;-142.92;90.16
56456;BME280;42354;53.218;6.564;2023-05-21T02:36:32;46950.34;;;-142.92;90.20
56456;BME280;42354;53.218;6.564;2023-05-21T02:38:57;46966.75;;;-142.92;90.30
56456;BME280;42354;53.218;6.564;2023-05-21T02:41:23;46970.88;;;-142.92;90.50
56456;BME280;42354;53.218;6.564;2023-05-21T02:43:48;46970.88;;;-142.92;90.71
56456;BME280;42354;53.218;6.564;2023-05-21T02:46:13;46970.88;;;-142.92;91.17
56456;BME280;42354;53.218;6.564;2023-05-21T02:48:39;46968.81;;;-142.92;91.27
56456;BME280;42354;53.218;6.564;2023-05-21T02:51:04;46981.13;;;-142.92;91.57
56456;BME280;42354;53.218;6.564;2023-05-21T02:53:29;46970.88;;;-142.92;91.77
56456;BME280;42354;53.218;6.564;2023-05-21T02:55:55;46962.66;;;-142.92;92.19
56456;BME280;42354;53.218;6.564;2023-05-21T02:58:21;46966.75;;;-142.92;92.59
56456;BME280;42354;53.218;6.564;2023-05-21T03:00:49;46964.72;;;-142.92;92.82
56456;BME280;42354;53.218;6.564;2023-05-21T03:03:15;46954.44;;;-142.92;92.89
56456;BME280;42354;53.218;6.564;2023-05-21T03:05:40;46979.06;;;-142.92;93.18
56456;BME280;42354;53.218;6.564;2023-05-21T03:08:06;46991.38;;;-142.92;93.20
56456;BME280;42354;53.218;6.564;2023-05-21T03:10:31;46952.41;;;-142.92;93.36
56456;BME280;42354;53.218;6.564;2023-05-21T03:12:57;46981.13;;;-142.92;93.63
56456;BME280;42354;53.218;6.564;2023-05-21T03:15:22;46968.81;;;-142.92;93.67
56456;BME280;42354;53.218;6.564;2023-05-21T03:17:51;46968.81;;;-142.92;93.53
56456;BME280;42354;53.218;6.564;2023-05-21T03:20:18;46960.59;;;-142.92;93.43
56456;BME280;42354;53.218;6.564;2023-05-21T03:22:44;46956.50;;;-142.92;93.39
56456;BME280;42354;53.218;6.564;2023-05-21T03:25:10;46968.81;;;-142.92;93.55
56456;BME280;42354;53.218;6.564;2023-05-21T03:27:37;46964.72;;;-142.92;93.33
56456;BME280;42354;53.218;6.564;2023-05-21T03:30:04;46972.91;;;-142.92;93.37
56456;BME280;42354;53.218;6.564;2023-05-21T03:32:29;46970.88;;;-142.92;93.13
56456;BME280;42354;53.218;6.564;2023-05-21T03:34:55;46983.19;;;-142.92;93.06
56456;BME280;42354;53.218;6.564;2023-05-21T03:37:20;46977.03;;;-142.92;93.47
56456;BME280;42354;53.218;6.564;2023-05-21T03:39:45;46958.56;;;-142.92;93.28
56456;BME280;42354;53.218;6.564;2023-05-21T03:42:11;46964.72;;;-142.92;93.47
56456;BME280;42354;53.218;6.564;2023-05-21T03:44:38;46985.22;;;-142.92;93.57
56456;BME280;42354;53.218;6.564;2023-05-21T03:47:03;46977.03;;;-142.92;93.50
56456;BME280;42354;53.218;6.564;2023-05-21T03:49:29;46966.75;;;-142.92;93.36
56456;BME280;42354;53.218;6.564;2023-05-21T03:51:54;46966.75;;;-142.92;93.26
56456;BME280;42354;53.218;6.564;2023-05-21T03:54:20;46983.19;;;-142.92;93.42
56456;BME280;42354;53.218;6.564;2023-05-21T03:56:45;46966.75;;;-142.92;93.35
56456;BME280;42354;53.218;6.564;2023-05-21T03:59:11;46964.72;;;-142.92;93.33
56456;BME280;42354;53.218;6.564;2023-05-21T04:01:36;46970.88;;;-142.92;93.41
56456;BME280;42354;53.218;6.564;2023-05-21T04:04:03;46983.19;;;-142.92;93.14
56456;BME280;42354;53.218;6.564;2023-05-21T04:06:28;46970.88;;;-142.92;93.18
56456;BME280;42354;53.218;6.564;2023-05-21T04:08:54;46968.81;;;-142.92;93.00
56456;BME280;42354;53.218;6.564;2023-05-21T04:11:19;46977.03;;;-142.92;92.93
56456;BME280;42354;53.218;6.564;2023-05-21T04:13:45;46970.88;;;-142.92;92.84
56456;BME280;42354;53.218;6.564;2023-05-21T04:16:12;46966.75;;;-142.92;92.95
56456;BME280;42354;53.218;6.564;2023-05-21T04:18:39;46960.59;;;-142.92;92.69
56456;BME280;42354;53.218;6.564;2023-05-21T04:21:06;46977.03;;;-142.92;92.89
56456;BME280;42354;53.218;6.564;2023-05-21T04:23:31;46981.13;;;-142.92;92.57
56456;BME280;42354;53.218;6.564;2023-05-21T04:25:57;46960.59;;;-142.92;92.68
56456;BME280;42354;53.218;6.564;2023-05-21T04:28:23;46970.88;;;-142.92;92.63
56456;BME280;42354;53.218;6.564;2023-05-21T04:30:48;46987.28;;;-142.92;92.70
56456;BME280;42354;53.218;6.564;2023-05-21T04:33:14;46966.75;;;-142.92;93.06
56456;BME280;42354;53.218;6.564;2023-05-21T04:35:49;46962.66;;;-142.92;92.68
56456;BME280;42354;53.218;6.564;2023-05-21T04:38:15;46972.91;;;-142.92;93.07
56456;BME280;42354;53.218;6.564;2023-05-21T04:40:47;46995.50;;;-142.92;93.09
56456;BME280;42354;53.218;6.564;2023-05-21T04:43:14;46972.91;;;-142.92;93.28
56456;BME280;42354;53.218;6.564;2023-05-21T04:45:41;46985.22;;;-142.92;93.31
56456;BME280;42354;53.218;6.564;2023-05-21T04:48:07;46977.03;;;-142.92;93.28
56456;BME280;42354;53.218;6.564;2023-05-21T04:50:33;46968.81;;;-142.92;93.01
56456;BME280;42354;53.218;6.564;2023-05-21T04:53:00;46966.75;;;-142.92;92.89
56456;BME280;42354;53.218;6.564;2023-05-21T04:55:29;46981.13;;;-142.92;92.67
56456;BME280;42354;53.218;6.564;2023-05-21T04:57:54;46966.75;;;-142.92;92.47
56456;BME280;42354;53.218;6.564;2023-05-21T05:00:20;46979.06;;;-142.92;92.19
56456;BME280;42354;53.218;6.564;2023-05-21T05:02:45;46972.91;;;-142.92;91.96
56456;BME280;42354;53.218;6.564;2023-05-21T05:05:11;46974.97;;;-142.92;91.82
56456;BME280;42354;53.218;6.564;2023-05-21T05:07:36;46966.75;;;-142.92;91.49
56456;BME280;42354;53.218;6.564;2023-05-21T05:10:02;46979.06;;;-142.92;91.39
56456;BME280;42354;53.218;6.564;2023-05-21T05:12:27;46974.97;;;-142.92;90.86
56456;BME280;42354;53.218;6.564;2023-05-21T05:14:52;46962.66;;;-142.92;90.45
56456;BME280;42354;53.218;6.564;2023-05-21T05:17:18;46987.28;;;-142.92;90.12
56456;BME280;42354;53.218;6.564;2023-05-21T05:19:43;46983.19;;;-142.92;89.61
56456;BME280;42354;53.218;6.564;2023-05-21T05:22:09;46970.88;;;-142.92;88.96
56456;BME280;42354;53.218;6.564;2023-05-21T05:24:34;46985.22;;;-142.92;88.58
56456;BME280;42354;53.218;6.564;2023-05-21T05:27:00;46983.19;;;-142.92;88.33
56456;BME280;42354;53.218;6.564;2023-05-21T05:29:25;46981.13;;;-142.92;87.96
56456;BME280;42354;53.218;6.564;2023-05-21T05:31:51;46985.22;;;-142.92;87.54
56456;BME280;42354;53.218;6.564;2023-05-21T05:34:16;46987.28;;;-142.92;87.05
56456;BME280;42354;53.218;6.564;2023-05-21T05:36:41;46962.66;;;-142.92;86.56
56456;BME280;42354;53.218;6.564;2023-05-21T05:39:07;46972.91;;;-142.92;85.89
56456;BME280;42354;53.218;6.564;2023-05-21T05:41:32;46979.06;;;-142.92;85.56
56456;BME280;42354;53.218;6.564;2023-05-21T05:43:58;46979.06;;;-142.92;84.97
56456;BME280;42354;53.218;6.564;2023-05-21T05:46:23;46970.88;;;-142.92;84.60
56456;BME280;42354;53.218;6.564;2023-05-21T05:48:49;46981.13;;;-142.92;84.16
56456;BME280;42354;53.218;6.564;2023-05-21T05:51:14;46966.75;;;-142.92;83.69
56456;BME280;42354;53.218;6.564;2023-05-21T05:53:41;46974.97;;;-142.92;83.08
56456;BME280;42354;53.218;6.564;2023-05-21T05:56:06;46983.19;;;-142.92;82.69
56456;BME280;42354;53.218;6.564;2023-05-21T05:58:32;46979.06;;;-142.92;82.35
56456;BME280;42354;53.218;6.564;2023-05-21T06:00:57;46977.03;;;-142.92;81.97
56456;BME280;42354;53.218;6.564;2023-05-21T06:03:22;46974.97;;;-142.92;81.37
56456;BME280;42354;53.218;6.564;2023-05-21T06:05:48;46970.88;;;-142.92;81.17
56456;BME280;42354;53.218;6.564;2023-05-21T06:08:14;46966.75;;;-142.92;80.92
56456;BME280;42354;53.218;6.564;2023-05-21T06:10:39;46968.81;;;-142.92;80.56
56456;BME280;42354;53.218;6.564;2023-05-21T06:13:05;46989.34;;;-142.92;79.87
56456;BME280;42354;53.218;6.564;2023-05-21T06:15:30;46966.75;;;-142.92;79.45
56456;BME280;42354;53.218;6.564;2023-05-21T06:17:55;46981.13;;;-142.92;79.42
56456;BME280;42354;53.218;6.564;2023-05-21T06:20:21;46989.34;;;-142.92;79.48
56456;BME280;42354;53.218;6.564;2023-05-21T06:22:46;46989.34;;;-142.92;79.34
56456;BME280;42354;53.218;6.564;2023-05-21T06:25:12;46970.88;;;-142.92;79.55
56456;BME280;42354;53.218;6.564;2023-05-21T06:27:37;46981.13;;;-142.92;79.22
56456;BME280;42354;53.218;6.564;2023-05-21T06:30:03;46987.28;;;-142.92;79.46
56456;BME280;42354;53.218;6.564;2023-05-21T06:32:28;46985.22;;;-142.92;79.04
56456;BME280;42354;53.218;6.564;2023-05-21T06:34:54;46974.97;;;-142.92;78.63
56456;BME280;42354;53.218;6.564;2023-05-21T06:37:19;46985.22;;;-142.92;78.54
56456;BME280;42354;53.218;6.564;2023-05-21T06:39:48;46987.28;;;-142.92;77.97
56456;BME280;42354;53.218;6.564;2023-05-21T06:42:14;46989.34;;;-142.92;77.88
56456;BME280;42354;53.218;6.564;2023-05-21T06:44:39;47003.69;;;-142.92;77.52
56456;BME280;42354;53.218;6.564;2023-05-21T06:47:05;46985.22;;;-142.92;77.35
56456;BME280;42354;53.218;6.564;2023-05-21T06:49:31;46970.88;;;-142.92;77.55
56456;BME280;42354;53.218;6.564;2023-05-21T06:51:56;46974.97;;;-142.92;77.18
56456;BME280;42354;53.218;6.564;2023-05-21T06:54:21;46977.03;;;-142.92;77.10
56456;BME280;42354;53.218;6.564;2023-05-21T06:56:47;46968.81;;;-142.92;76.89
56456;BME280;42354;53.218;6.564;2023-05-21T06:59:12;46974.97;;;-142.92;76.37
56456;BME280;42354;53.218;6.564;2023-05-21T07:01:38;46983.19;;;-142.92;75.77
56456;BME280;42354;53.218;6.564;2023-05-21T07:04:06;46966.75;;;-142.92;75.15
56456;BME280;42354;53.218;6.564;2023-05-21T07:06:32;46979.06;;;-142.92;75.09
56456;BME280;42354;53.218;6.564;2023-05-21T07:08:59;46983.19;;;-142.92;75.00
56456;BME280;42354;53.218;6.564;2023-05-21T07:11:24;46979.06;;;-142.92;74.59
56456;BME280;42354;53.218;6.564;2023-05-21T07:13:53;46970.88;;;-142.92;74.19
56456;BME280;42354;53.218;6.564;2023-05-21T07:16:19;46970.88;;;-142.92;73.07
56456;BME280;42354;53.218;6.564;2023-05-21T07:18:44;46974.97;;;-142.92;72.14
56456;BME280;42354;53.218;6.564;2023-05-21T07:21:10;46987.28;;;-142.92;71.65
56456;BME280;42354;53.218;6.564;2023-05-21T07:23:35;46979.06;;;-142.92;70.95
56456;BME280;42354;53.218;6.564;2023-05-21T07:26:00;46983.19;;;-142.92;70.96
56456;BME280;42354;53.218;6.564;2023-05-21T07:28:26;46987.28;;;-142.92;71.56
56456;BME280;42354;53.218;6.564;2023-05-21T07:30:51;46977.03;;;-142.92;71.28
56456;BME280;42354;53.218;6.564;2023-05-21T07:33:16;46974.97;;;-142.92;71.30
56456;BME280;42354;53.218;6.564;2023-05-21T07:35:44;46979.06;;;-142.92;70.97
56456;BME280;42354;53.218;6.564;2023-05-21T07:38:10;46962.66;;;-142.92;70.60
56456;BME280;42354;53.218;6.564;2023-05-21T07:40:35;46983.19;;;-142.92;70.31
56456;BME280;42354;53.218;6.564;2023-05-21T07:43:01;46958.56;;;-142.92;70.09
56456;BME280;42354;53.218;6.564;2023-05-21T07:45:26;46970.88;;;-142.92;70.36
56456;BME280;42354;53.218;6.564;2023-05-21T07:47:51;46991.38;;;-142.92;70.72
56456;BME280;42354;53.218;6.564;2023-05-21T07:50:17;46968.81;;;-142.92;71.08
56456;BME280;42354;53.218;6.564;2023-05-21T07:52:42;46968.81;;;-142.92;71.28
56456;BME280;42354;53.218;6.564;2023-05-21T07:55:08;46968.81;;;-142.92;70.92
56456;BME280;42354;53.218;6.564;2023-05-21T07:57:34;46987.28;;;-142.92;70.46
56456;BME280;42354;53.218;6.564;2023-05-21T07:59:59;46970.88;;;-142.92;69.95
56456;BME280;42354;53.218;6.564;2023-05-21T08:02:25;46981.13;;;-142.92;69.50
56456;BME280;42354;53.218;6.564;2023-05-21T08:04:50;46962.66;;;-142.92;69.19
56456;BME280;42354;53.218;6.564;2023-05-21T08:07:17;46972.91;;;-142.92;68.59
56456;BME280;42354;53.218;6.564;2023-05-21T08:09:44;46979.06;;;-142.92;68.64
56456;BME280;42354;53.218;6.564;2023-05-21T08:12:10;46983.19;;;-142.92;68.63
56456;BME280;42354;53.218;6.564;2023-05-21T08:14:38;46979.06;;;-142.92;68.69
56456;BME280;42354;53.218;6.564;2023-05-21T08:17:03;46979.06;;;-142.92;68.87
56456;BME280;42354;53.218;6.564;2023-05-21T08:19:29;46997.53;;;-142.92;68.93
56456;BME280;42354;53.218;6.564;2023-05-21T08:21:55;46974.97;;;-142.92;69.26
56456;BME280;42354;53.218;6.564;2023-05-21T08:24:20;46977.03;;;-142.92;68.97
56456;BME280;42354;53.218;6.564;2023-05-21T08:26:46;46962.66;;;-142.92;68.52
56456;BME280;42354;53.218;6.564;2023-05-21T08:29:13;46981.13;;;-142.92;68.27
56456;BME280;42354;53.218;6.564;2023-05-21T08:31:39;46964.72;;;-142.92;67.56
56456;BME280;42354;53.218;6.564;2023-05-21T08:34:04;46979.06;;;-142.92;67.00
56456;BME280;42354;53.218;6.564;2023-05-21T08:36:30;46985.22;;;-142.92;66.53
56456;BME280;42354;53.218;6.564;2023-05-21T08:38:55;46985.22;;;-142.92;66.08
56456;BME280;42354;53.218;6.564;2023-05-21T08:41:21;46987.28;;;-142.92;66.12
56456;BME280;42354;53.218;6.564;2023-05-21T08:43:55;46968.81;;;-142.92;65.22
56456;BME280;42354;53.218;6.564;2023-05-21T08:46:22;46983.19;;;-142.92;65.12
56456;BME280;42354;53.218;6.564;2023-05-21T08:48:50;46966.75;;;-142.92;65.90
56456;BME280;42354;53.218;6.564;2023-05-21T08:51:20;46981.13;;;-142.92;65.53
56456;BME280;42354;53.218;6.564;2023-05-21T08:53:45;46974.97;;;-142.92;65.63
56456;BME280;42354;53.218;6.564;2023-05-21T08:56:11;46977.03;;;-142.92;64.92
56456;BME280;42354;53.218;6.564;2023-05-21T08:58:38;46997.53;;;-142.92;64.79
56456;BME280;42354;53.218;6.564;2023-05-21T09:01:06;46970.88;;;-142.92;64.37
56456;BME280;42354;53.218;6.564;2023-05-21T09:03:34;46966.75;;;-142.92;64.21
56456;BME280;42354;53.218;6.564;2023-05-21T09:06:03;46977.03;;;-142.92;63.67
56456;BME280;42354;53.218;6.564;2023-05-21T09:08:34;46970.88;;;-142.92;62.65
56456;BME280;42354;53.218;6.564;2023-05-21T09:11:02;46987.28;;;-142.92;62.75
56456;BME280;42354;53.218;6.564;2023-05-21T09:13:30;46987.28;;;-142.92;61.77
56456;BME280;42354;53.218;6.564;2023-05-21T09:15:57;46966.75;;;-142.92;61.71
56456;BME280;42354;53.218;6.564;2023-05-21T09:18:22;46995.50;;;-142.92;61.27
56456;BME280;42354;53.218;6.564;2023-05-21T09:20:48;46987.28;;;-142.92;61.42
56456;BME280;42354;53.218;6.564;2023-05-21T09:23:16;46983.19;;;-142.92;61.07
56456;BME280;42354;53.218;6.564;2023-05-21T09:25:46;46974.97;;;-142.92;60.64
56456;BME280;42354;53.218;6.564;2023-05-21T09:28:16;46989.34;;;-142.92;60.03
56456;BME280;42354;53.218;6.564;2023-05-21T09:33:23;46970.88;;;-142.92;58.62
56456;BME280;42354;53.218;6.564;2023-05-21T09:35:49;46974.97;;;-142.92;58.96
56456;BME280;42354;53.218;6.564;2023-05-21T09:38:15;46989.34;;;-142.92;56.66
56456;BME280;42354;53.218;6.564;2023-05-21T09:40:44;46983.19;;;-142.92;54.67
56456;BME280;42354;53.218;6.564;2023-05-21T09:43:13;46983.19;;;-142.92;53.56
56456;BME280;42354;53.218;6.564;2023-05-21T09:45:50;46987.28;;;-142.92;53.24
56456;BME280;42354;53.218;6.564;2023-05-21T09:48:17;46960.59;;;-142.92;53.46
56456;BME280;42354;53.218;6.564;2023-05-21T09:51:06;46981.13;;;-142.92;52.03
56456;BME280;42354;53.218;6.564;2023-05-21T09:53:32;46966.75;;;-142.92;52.67
56456;BME280;42354;53.218;6.564;2023-05-21T09:55:58;46989.34;;;-142.92;52.12
56456;BME280;42354;53.218;6.564;2023-05-21T09:58:24;46970.88;;;-142.92;52.61
56456;BME280;42354;53.218;6.564;2023-05-21T10:00:51;46974.97;;;-142.92;52.99
56456;BME280;42354;53.218;6.564;2023-05-21T10:03:22;46983.19;;;-142.92;52.83
56456;BME280;42354;53.218;6.564;2023-05-21T10:05:48;46962.66;;;-142.92;52.86
56456;BME280;42354;53.218;6.564;2023-05-21T10:08:17;46983.19;;;-142.92;52.63
56456;BME280;42354;53.218;6.564;2023-05-21T10:10:48;46970.88;;;-142.92;52.53
56456;BME280;42354;53.218;6.564;2023-05-21T10:13:13;46979.06;;;-142.92;51.93
56456;BME280;42354;53.218;6.564;2023-05-21T10:15:43;46981.13;;;-142.92;51.23
56456;BME280;42354;53.218;6.564;2023-05-21T10:18:11;46962.66;;;-142.92;51.12
56456;BME280;42354;53.218;6.564;2023-05-21T10:20:37;46972.91;;;-142.92;52.40
56456;BME280;42354;53.218;6.564;2023-05-21T10:23:03;46958.56;;;-142.92;52.22
56456;BME280;42354;53.218;6.564;2023-05-21T10:25:30;46977.03;;;-142.92;52.51
56456;BME280;42354;53.218;6.564;2023-05-21T10:27:56;46977.03;;;-142.92;52.72
56456;BME280;42354;53.218;6.564;2023-05-21T10:30:22;46979.06;;;-142.92;51.79
56456;BME280;42354;53.218;6.564;2023-05-21T10:32:48;46987.28;;;-142.92;51.15
56456;BME280;42354;53.218;6.564;2023-05-21T10:35:17;46970.88;;;-142.92;50.71
56456;BME280;42354;53.218;6.564;2023-05-21T10:37:43;46974.97;;;-142.92;50.95
56456;BME280;42354;53.218;6.564;2023-05-21T10:40:10;46979.06;;;-142.92;50.99
56456;BME280;42354;53.218;6.564;2023-05-21T10:45:50;46964.72;;;-142.92;50.87
56456;BME280;42354;53.218;6.564;2023-05-21T10:48:41;46958.56;;;-142.92;51.43
56456;BME280;42354;53.218;6.564;2023-05-21T10:51:15;46966.75;;;-142.92;51.00
56456;BME280;42354;53.218;6.564;2023-05-21T11:01:27;46970.88;;;-142.92;50.63
56456;BME280;42354;53.218;6.564;2023-05-21T11:03:53;46964.72;;;-142.92;50.78
56456;BME280;42354;53.218;6.564;2023-05-21T11:06:25;46974.97;;;-142.92;50.06
56456;BME280;42354;53.218;6.564;2023-05-21T11:08:51;46989.34;;;-142.92;50.16
56456;BME280;42354;53.218;6.564;2023-05-21T11:16:52;46974.97;;;-142.92;50.27
56456;BME280;42354;53.218;6.564;2023-05-21T11:19:17;46952.41;;;-142.92;50.21
56456;BME280;42354;53.218;6.564;2023-05-21T11:21:49;46974.97;;;-142.92;50.65
56456;BME280;42354;53.218;6.564;2023-05-21T11:24:18;46974.97;;;-142.92;50.71
56456;BME280;42354;53.218;6.564;2023-05-21T11:29:13;46966.75;;;-142.92;51.00
56456;BME280;42354;53.218;6.564;2023-05-21T11:31:45;46974.97;;;-142.92;49.95
56456;BME280;42354;53.218;6.564;2023-05-21T11:34:14;46970.88;;;-142.92;49.53
56456;BME280;42354;53.218;6.564;2023-05-21T11:36:43;46981.13;;;-142.92;49.02
56456;BME280;42354;53.218;6.564;2023-05-21T11:39:18;46956.50;;;-142.92;48.15
56456;BME280;42354;53.218;6.564;2023-05-21T11:41:59;46977.03;;;-142.92;47.77
56456;BME280;42354;53.218;6.564;2023-05-21T11:44:45;46983.19;;;-142.92;47.75
56456;BME280;42354;53.218;6.564;2023-05-21T11:47:12;46970.88;;;-142.92;48.52
56456;BME280;42354;53.218;6.564;2023-05-21T11:49:43;46972.91;;;-142.92;48.41
56456;BME280;42354;53.218;6.564;2023-05-21T11:52:10;46987.28;;;-142.92;48.42
56456;BME280;42354;53.218;6.564;2023-05-21T11:54:43;46991.38;;;-142.92;48.50
56456;BME280;42354;53.218;6.564;2023-05-21T11:57:11;46962.66;;;-142.92;48.86
56456;BME280;42354;53.218;6.564;2023-05-21T11:59:41;46985.22;;;-142.92;48.90
56456;BME280;42354;53.218;6.564;2023-05-21T12:02:07;46966.75;;;-142.92;50.80
56456;BME280;42354;53.218;6.564;2023-05-21T12:04:34;46966.75;;;-142.92;51.79
56456;BME280;42354;53.218;6.564;2023-05-21T12:07:06;46974.97;;;-142.92;52.48
56456;BME280;42354;53.218;6.564;2023-05-21T12:09:49;46970.88;;;-142.92;52.85
56456;BME280;42354;53.218;6.564;2023-05-21T12:12:19;46966.75;;;-142.92;53.13
56456;BME280;42354;53.218;6.564;2023-05-21T12:14:49;46964.72;;;-142.92;53.68
56456;BME280;42354;53.218;6.564;2023-05-21T12:17:16;46979.06;;;-142.92;54.11
56456;BME280;42354;53.218;6.564;2023-05-21T12:19:44;46977.03;;;-142.92;53.91
56456;BME280;42354;53.218;6.564;2023-05-21T12:22:10;46968.81;;;-142.92;53.63
56456;BME280;42354;53.218;6.564;2023-05-21T12:24:36;46966.75;;;-142.92;52.90
56456;BME280;42354;53.218;6.564;2023-05-21T12:27:04;46968.81;;;-142.92;52.70
56456;BME280;42354;53.218;6.564;2023-05-21T12:29:36;46960.59;;;-142.92;52.58
56456;BME280;42354;53.218;6.564;2023-05-21T12:32:04;46962.66;;;-142.92;52.40
56456;BME280;42354;53.218;6.564;2023-05-21T12:34:52;46970.88;;;-142.92;52.43
56456;BME280;42354;53.218;6.564;2023-05-21T12:37:28;46964.72;;;-142.92;52.03
56456;BME280;42354;53.218;6.564;2023-05-21T12:39:59;46979.06;;;-142.92;51.57
56456;BME280;42354;53.218;6.564;2023-05-21T12:42:27;46979.06;;;-142.92;51.71
56456;BME280;42354;53.218;6.564;2023-05-21T12:44:54;46970.88;;;-142.92;51.25
56456;BME280;42354;53.218;6.564;2023-05-21T12:47:26;46964.72;;;-142.92;51.04
56456;BME280;42354;53.218;6.564;2023-05-21T12:50:02;46977.03;;;-142.92;50.87
56456;BME280;42354;53.218;6.564;2023-05-21T12:52:28;46972.91;;;-142.92;52.07
56456;BME280;42354;53.218;6.564;2023-05-21T12:55:14;46974.97;;;-142.92;51.97
56456;BME280;42354;53.218;6.564;2023-05-21T12:57:39;46966.75;;;-142.92;51.41
56456;BME280;42354;53.218;6.564;2023-05-21T13:00:06;46970.88;;;-142.92;52.27
56456;BME280;42354;53.218;6.564;2023-05-21T13:02:38;46970.88;;;-142.92;53.79
56456;BME280;42354;53.218;6.564;2023-05-21T13:05:04;46962.66;;;-142.92;54.60
56456;BME280;42354;53.218;6.564;2023-05-21T13:07:33;46960.59;;;-142.92;54.54